Time;durP1;ratioP1;P1;durP2;ratioP2;P2;SDS_P1;SDS_P2;PMS_P1;PMS_P2;Temp;Humidity;BMP_temperature;BMP_pressure;BME280_temperature;BME280_humidity;BME280_pressure;Samples;Min_cycle;Max_cycle;Signal;HPM_P1;HPM_P2
2022/07/03 03:01:38;;;;;;;0.68;0.60;;;27.90;42.70;;;;;;5491299;23;45914;-67
2022/07/03 03:04:08;;;;;;;0.60;0.60;;;27.90;42.80;;;;;;4942101;28;45911;-63
2022/07/03 03:06:34;;;;;;;0.60;0.60;;;27.80;42.70;;;;;;4964587;28;44752;-65
2022/07/03 03:09:02;;;;;;;0.60;0.60;;;27.90;42.70;;;;;;4932577;28;45531;-62
2022/07/03 03:11:43;;;;;;;0.60;0.60;;;27.90;42.70;;;;;;4920910;28;44881;-61
2022/07/03 03:14:14;;;;;;;0.60;0.60;;;27.90;42.80;;;;;;4947358;28;46097;-63
2022/07/03 03:16:53;;;;;;;1.08;0.77;;;27.80;42.70;;;;;;4946268;28;45777;-65
2022/07/03 03:19:22;;;;;;;0.82;0.68;;;27.90;42.80;;;;;;4948431;28;45034;-66
2022/07/03 03:22:40;;;;;;;0.60;0.60;;;27.90;42.80;;;;;;4947067;28;44736;-62
2022/07/03 03:25:05;;;;;;;0.40;0.40;;;27.90;42.90;;;;;;4904586;28;46156;-64
2022/07/03 03:27:31;;;;;;;0.40;0.38;;;27.90;42.80;;;;;;4906680;28;45362;-64
2022/07/03 03:29:57;;;;;;;0.63;0.63;;;27.80;42.70;;;;;;4909596;28;45985;-63
2022/07/03 03:32:22;;;;;;;0.52;0.52;;;27.80;42.80;;;;;;4911281;28;45815;-60
2022/07/03 03:34:48;;;;;;;0.40;0.40;;;27.80;42.80;;;;;;4914966;28;45548;-62
2022/07/03 03:37:13;;;;;;;1.00;0.73;;;27.80;42.80;;;;;;4945037;28;45591;-63
2022/07/03 03:39:39;;;;;;;0.60;0.60;;;27.90;42.90;;;;;;4948778;28;45627;-60
2022/07/03 03:42:05;;;;;;;0.63;0.63;;;27.80;42.80;;;;;;4928793;28;44981;-61
2022/07/03 03:44:30;;;;;;;0.57;0.57;;;27.80;43.40;;;;;;4946379;28;46877;-60
2022/07/03 03:46:56;;;;;;;0.65;0.57;;;27.80;42.80;;;;;;4943342;28;45048;-62
2022/07/03 03:49:22;;;;;;;0.50;0.50;;;27.80;42.90;;;;;;4926775;28;45739;-62
2022/07/03 03:51:47;;;;;;;0.80;0.70;;;27.80;42.90;;;;;;4944687;28;44980;-62
2022/07/03 03:54:13;;;;;;;0.70;0.70;;;27.80;42.90;;;;;;4947232;28;44902;-63
2022/07/03 03:56:38;;;;;;;0.93;0.63;;;27.80;42.90;;;;;;4927892;28;45692;-66
2022/07/03 03:59:04;;;;;;;0.57;0.57;;;27.80;42.90;;;;;;4947402;28;45151;-62
2022/07/03 04:01:29;;;;;;;0.60;0.60;;;27.80;42.90;;;;;;4942156;28;45124;-68
2022/07/03 04:03:55;;;;;;;0.60;0.60;;;27.80;42.90;;;;;;4946211;28;46087;-63
2022/07/03 04:06:21;;;;;;;0.90;0.70;;;27.80;42.90;;;;;;4945505;28;45497;-65
2022/07/03 04:08:46;;;;;;;0.55;0.55;;;27.80;43.50;;;;;;4947336;28;45034;-63
2022/07/03 04:11:12;;;;;;;0.70;0.70;;;27.80;42.90;;;;;;4934337;28;44896;-63
2022/07/03 04:13:37;;;;;;;0.40;0.40;;;27.80;42.90;;;;;;4946921;28;44901;-65
2022/07/03 04:16:03;;;;;;;1.13;0.70;;;27.80;42.90;;;;;;4945932;28;45468;-71
2022/07/03 04:18:29;;;;;;;0.60;0.60;;;27.80;43.00;;;;;;4946851;28;45299;-66
2022/07/03 04:20:54;;;;;;;0.75;0.60;;;27.80;42.90;;;;;;4945759;28;45700;-63
2022/07/03 04:23:20;;;;;;;0.73;0.73;;;27.70;42.90;;;;;;4946761;28;45767;-65
2022/07/03 04:25:46;;;;;;;0.60;0.60;;;27.80;43.00;;;;;;4946615;28;45054;-60
2022/07/03 04:28:11;;;;;;;0.60;0.60;;;27.70;42.90;;;;;;4947061;28;45137;-66
2022/07/03 04:30:37;;;;;;;3.08;0.60;;;27.70;42.90;;;;;;4945749;28;45851;-68
2022/07/03 04:33:02;;;;;;;0.60;0.60;;;27.80;43.00;;;;;;4945913;28;46837;-62
2022/07/03 04:35:28;;;;;;;0.77;0.70;;;27.80;43.00;;;;;;4945939;28;45311;-65
2022/07/03 04:37:54;;;;;;;0.50;0.50;;;27.70;43.00;;;;;;4946133;28;45503;-62
2022/07/03 04:40:19;;;;;;;0.50;0.50;;;27.70;43.00;;;;;;4947003;28;44898;-60
2022/07/03 04:42:45;;;;;;;0.70;0.60;;;27.70;43.10;;;;;;4945419;28;45905;-64
2022/07/03 04:45:10;;;;;;;0.60;0.60;;;27.70;43.00;;;;;;4945613;28;45402;-66
2022/07/03 04:47:36;;;;;;;0.57;0.57;;;27.70;43.00;;;;;;4944833;28;45779;-63
2022/07/03 04:50:02;;;;;;;0.73;0.73;;;27.70;43.00;;;;;;4946201;28;45612;-65
2022/07/03 04:52:27;;;;;;;0.40;0.40;;;27.70;43.00;;;;;;4944746;28;45613;-66
2022/07/03 04:54:53;;;;;;;0.60;0.60;;;27.70;43.00;;;;;;4945301;28;44960;-60
2022/07/03 04:57:18;;;;;;;0.73;0.55;;;27.70;43.00;;;;;;4945256;28;44929;-64
2022/07/03 04:59:44;;;;;;;0.90;0.90;;;27.70;43.00;;;;;;4946322;28;45661;-63
2022/07/03 05:02:10;;;;;;;0.57;0.50;;;27.70;43.10;;;;;;4931327;28;46014;-60
2022/07/03 05:04:35;;;;;;;0.80;0.70;;;27.70;43.10;;;;;;4944803;28;45578;-62
2022/07/03 05:07:01;;;;;;;0.57;0.50;;;27.70;43.10;;;;;;4946247;28;46394;-61
2022/07/03 05:09:26;;;;;;;0.70;0.70;;;27.70;43.20;;;;;;4933857;28;45154;-70
2022/07/03 05:11:52;;;;;;;0.60;0.60;;;27.70;43.20;;;;;;4938363;28;45713;-67
2022/07/03 05:14:17;;;;;;;0.40;0.40;;;27.70;43.20;;;;;;4940086;28;45090;-65
2022/07/03 05:16:43;;;;;;;0.30;0.30;;;27.70;43.20;;;;;;4937839;28;44976;-65
2022/07/03 05:19:09;;;;;;;0.55;0.55;;;27.70;43.20;;;;;;4945118;28;45897;-65
2022/07/03 05:21:34;;;;;;;0.50;0.50;;;27.60;43.20;;;;;;4941471;28;46242;-65
2022/07/03 05:24:00;;;;;;;0.85;0.60;;;27.70;43.20;;;;;;4941245;28;45595;-63
2022/07/03 05:26:25;;;;;;;0.55;0.55;;;27.70;43.20;;;;;;4940318;28;44957;-62
2022/07/03 05:28:51;;;;;;;0.57;0.57;;;27.70;43.30;;;;;;4940936;28;45042;-68
2022/07/03 05:31:16;;;;;;;0.57;0.55;;;27.70;43.10;;;;;;4939609;28;45465;-66
2022/07/03 05:33:42;;;;;;;0.40;0.40;;;27.70;43.00;;;;;;4941771;28;45192;-67
2022/07/03 05:36:07;;;;;;;0.70;0.70;;;27.70;43.10;;;;;;4940036;28;45910;-67
2022/07/03 05:41:17;;;;;;;0.60;0.52;;;27.70;43.10;;;;;;4940443;28;45973;-66
2022/07/03 05:43:43;;;;;;;0.73;0.60;;;27.70;43.10;;;;;;4942196;28;45391;-68
2022/07/03 05:46:08;;;;;;;0.68;0.68;;;27.70;43.10;;;;;;4940960;28;44789;-63
2022/07/03 05:48:34;;;;;;;0.50;0.50;;;27.70;43.20;;;;;;4940655;28;45165;-67
2022/07/03 05:51:00;;;;;;;0.60;0.60;;;27.60;43.30;;;;;;4939467;28;46047;-61
2022/07/03 05:53:25;;;;;;;0.50;0.50;;;27.60;43.40;;;;;;4941995;28;45296;-64
2022/07/03 05:55:51;;;;;;;0.63;0.63;;;27.60;43.50;;;;;;4929279;28;45483;-62
2022/07/03 05:58:16;;;;;;;0.60;0.60;;;27.60;43.50;;;;;;4940905;28;45483;-67
2022/07/03 06:00:43;;;;;;;0.60;0.50;;;27.60;43.50;;;;;;4939868;28;46175;-65
2022/07/03 06:03:09;;;;;;;0.57;0.50;;;27.60;43.50;;;;;;4940558;28;45196;-66
2022/07/03 06:05:34;;;;;;;0.80;0.75;;;27.60;43.40;;;;;;4941034;28;45110;-65
2022/07/03 06:08:00;;;;;;;0.68;0.68;;;27.60;43.40;;;;;;4937457;28;44965;-65
2022/07/03 06:10:27;;;;;;;0.68;0.60;;;27.70;43.40;;;;;;4939211;28;45918;-70
2022/07/03 06:12:53;;;;;;;0.52;0.52;;;27.70;43.40;;;;;;4944574;28;45970;-63
2022/07/03 06:15:18;;;;;;;0.55;0.55;;;27.70;43.40;;;;;;4942704;28;45265;-70
2022/07/03 06:17:44;;;;;;;0.70;0.70;;;27.70;43.50;;;;;;4943479;28;45485;-67
2022/07/03 06:20:10;;;;;;;0.50;0.50;;;27.70;43.40;;;;;;4943866;28;45925;-72
2022/07/03 06:22:35;;;;;;;0.70;0.70;;;27.70;43.20;;;;;;4944704;28;45859;-65
2022/07/03 06:25:01;;;;;;;1.20;0.70;;;27.80;43.20;;;;;;4926655;28;45528;-58
2022/07/03 06:27:26;;;;;;;0.60;0.60;;;27.80;43.00;;;;;;4944816;28;45611;-64
2022/07/03 06:29:52;;;;;;;0.80;0.70;;;27.90;42.90;;;;;;4940643;28;46555;-62
2022/07/03 06:32:18;;;;;;;0.50;0.50;;;28.00;42.90;;;;;;4940391;28;45648;-64
2022/07/03 06:34:43;;;;;;;0.60;0.60;;;28.00;42.80;;;;;;4940862;28;45022;-66
2022/07/03 06:37:09;;;;;;;0.70;0.70;;;28.00;42.70;;;;;;4941520;28;45560;-58
2022/07/03 06:39:35;;;;;;;0.88;0.80;;;28.10;42.60;;;;;;4940855;28;45918;-64
2022/07/03 06:42:01;;;;;;;0.60;0.57;;;28.20;43.20;;;;;;4940081;28;45168;-63
2022/07/03 06:44:27;;;;;;;0.75;0.75;;;28.20;42.50;;;;;;4942144;28;45134;-67
2022/07/03 06:46:52;;;;;;;1.23;0.60;;;28.30;42.40;;;;;;4941714;28;45308;-58
2022/07/03 06:49:18;;;;;;;0.73;0.73;;;28.20;42.30;;;;;;4941001;28;46138;-70
2022/07/03 06:51:44;;;;;;;1.25;0.80;;;28.30;42.30;;;;;;4924121;28;45606;-63
2022/07/03 06:54:09;;;;;;;0.90;0.68;;;28.30;42.30;;;;;;4942216;28;45030;-67
2022/07/03 06:56:35;;;;;;;0.70;0.70;;;28.40;42.30;;;;;;4942125;28;45482;-64
2022/07/03 06:59:00;;;;;;;0.65;0.65;;;28.40;42.30;;;;;;4942034;28;45849;-66
2022/07/03 07:01:26;;;;;;;0.70;0.70;;;28.40;42.20;;;;;;4941238;28;45613;-69
2022/07/03 07:03:52;;;;;;;0.50;0.50;;;28.40;42.20;;;;;;4943536;28;45743;-67
2022/07/03 07:06:17;;;;;;;0.70;0.70;;;28.50;42.20;;;;;;4944313;28;45340;-65
2022/07/03 07:08:43;;;;;;;0.70;0.70;;;28.50;42.10;;;;;;4943597;28;45951;-72
2022/07/03 07:11:08;;;;;;;1.13;0.63;;;28.50;42.00;;;;;;4941437;28;45149;-65
2022/07/03 07:13:34;;;;;;;1.05;0.82;;;28.50;42.00;;;;;;4940777;28;45577;-62
2022/07/03 07:16:00;;;;;;;0.50;0.50;;;28.60;42.00;;;;;;4940733;28;45143;-65
2022/07/03 07:18:26;;;;;;;0.60;0.60;;;28.60;42.00;;;;;;4940945;28;46230;-60
2022/07/03 07:20:51;;;;;;;0.60;0.60;;;28.60;42.00;;;;;;4940103;28;45077;-68
2022/07/03 07:23:17;;;;;;;0.70;0.57;;;28.60;42.00;;;;;;4942321;28;45513;-62
2022/07/03 07:25:43;;;;;;;0.90;0.75;;;28.60;42.00;;;;;;4942388;28;45935;-72
2022/07/03 07:28:08;;;;;;;0.70;0.50;;;28.60;42.00;;;;;;4940753;28;46289;-69
2022/07/03 07:30:34;;;;;;;0.60;0.60;;;28.60;41.90;;;;;;4941379;28;44913;-64
2022/07/03 07:32:59;;;;;;;0.95;0.70;;;28.70;41.90;;;;;;4940034;28;45860;-66
2022/07/03 07:35:25;;;;;;;0.52;0.52;;;28.70;41.80;;;;;;4941725;28;45201;-60
2022/07/03 07:37:50;;;;;;;0.65;0.65;;;28.70;41.80;;;;;;4941421;28;45876;-70
2022/07/03 07:40:16;;;;;;;0.85;0.80;;;28.70;41.70;;;;;;4941562;28;46128;-63
2022/07/03 07:42:42;;;;;;;0.60;0.60;;;28.80;41.80;;;;;;4939585;28;45204;-68
2022/07/03 07:45:09;;;;;;;0.60;0.60;;;28.80;41.70;;;;;;4941534;28;45211;-68
2022/07/03 07:47:35;;;;;;;0.63;0.63;;;28.80;41.70;;;;;;4940011;28;46010;-64
2022/07/03 07:50:00;;;;;;;0.70;0.68;;;28.80;41.70;;;;;;4923761;28;44918;-63
2022/07/03 07:52:26;;;;;;;0.63;0.63;;;28.80;41.70;;;;;;4940883;28;46126;-64
2022/07/03 07:54:52;;;;;;;0.45;0.45;;;28.80;41.60;;;;;;4944347;28;44978;-65
2022/07/03 07:57:17;;;;;;;0.47;0.47;;;28.80;41.60;;;;;;4942249;28;46261;-68
2022/07/03 07:59:43;;;;;;;0.73;0.43;;;28.80;41.60;;;;;;4942813;28;45511;-71
2022/07/03 08:07:37;;;;;;;0.70;0.70;;;28.90;41.60;;;;;;4943083;28;46032;-69
2022/07/03 08:10:03;;;;;;;0.80;0.80;;;28.90;41.50;;;;;;4925701;28;45171;-65
2022/07/03 08:12:29;;;;;;;0.68;0.68;;;28.90;41.60;;;;;;4942918;28;45905;-69
2022/07/03 08:14:54;;;;;;;0.63;0.63;;;28.90;41.50;;;;;;4942286;28;45014;-62
2022/07/03 08:17:20;;;;;;;2.80;0.80;;;28.90;41.50;;;;;;4942742;28;45612;-64
2022/07/03 08:19:46;;;;;;;0.63;0.60;;;28.90;41.50;;;;;;4941985;28;44993;-68
2022/07/03 08:22:11;;;;;;;0.63;0.63;;;28.90;41.50;;;;;;4925070;28;44746;-67
2022/07/03 08:24:37;;;;;;;0.80;0.80;;;28.90;41.50;;;;;;4943561;28;45715;-64
2022/07/03 08:27:04;;;;;;;0.63;0.63;;;28.90;41.50;;;;;;4941803;28;45666;-64
2022/07/03 08:29:30;;;;;;;0.73;0.73;;;28.90;41.50;;;;;;4940415;28;44745;-68
2022/07/03 08:31:56;;;;;;;0.70;0.70;;;28.90;41.50;;;;;;4942981;28;45067;-59
2022/07/03 08:34:22;;;;;;;0.50;0.47;;;29.00;41.50;;;;;;4943400;28;45759;-63
2022/07/03 08:36:47;;;;;;;0.65;0.65;;;29.00;41.50;;;;;;4943116;28;46100;-65
2022/07/03 08:39:13;;;;;;;0.50;0.50;;;29.00;41.50;;;;;;4942141;28;45564;-65
2022/07/03 08:41:40;;;;;;;0.73;0.65;;;29.00;41.50;;;;;;4942079;28;45425;-64
2022/07/03 08:44:07;;;;;;;0.70;0.70;;;29.00;41.50;;;;;;4942410;28;45586;-69
2022/07/03 08:46:32;;;;;;;0.60;0.60;;;29.00;41.50;;;;;;4943193;28;46448;-71
2022/07/03 08:49:01;;;;;;;0.68;0.65;;;29.00;41.40;;;;;;4925293;28;44750;-62
2022/07/03 08:51:27;;;;;;;0.80;0.70;;;29.00;41.40;;;;;;4922374;28;45890;-67
2022/07/03 08:53:54;;;;;;;0.60;0.60;;;29.00;41.40;;;;;;4924109;28;44865;-62
2022/07/03 08:56:20;;;;;;;0.50;0.50;;;29.00;41.40;;;;;;4941858;28;46489;-62
2022/07/03 08:58:46;;;;;;;0.50;0.50;;;29.10;41.40;;;;;;4941692;28;45766;-64
2022/07/03 09:01:17;;;;;;;0.60;0.60;;;29.10;41.40;;;;;;4941683;28;45498;-69
2022/07/03 09:03:43;;;;;;;0.55;0.55;;;29.10;41.40;;;;;;4925845;28;45766;-73
2022/07/03 09:06:08;;;;;;;0.55;0.55;;;29.10;41.40;;;;;;4923363;28;44923;-64
2022/07/03 09:08:34;;;;;;;0.70;0.70;;;29.10;41.40;;;;;;4922176;28;45500;-61
2022/07/03 09:11:01;;;;;;;0.82;0.60;;;29.10;41.40;;;;;;4943979;28;45807;-62
2022/07/03 09:13:27;;;;;;;0.52;0.52;;;29.10;41.30;;;;;;4945710;28;45200;-61
2022/07/03 09:15:53;;;;;;;0.50;0.50;;;29.10;41.30;;;;;;4927433;28;45537;-67
2022/07/03 09:18:18;;;;;;;0.88;0.57;;;29.10;41.30;;;;;;4944725;28;44771;-60
2022/07/03 09:20:44;;;;;;;0.68;0.55;;;29.20;41.30;;;;;;4907777;28;45279;-64
2022/07/03 09:23:10;;;;;;;0.50;0.50;;;29.20;41.30;;;;;;4934689;28;45819;-67
2022/07/03 09:25:49;;;;;;;0.60;0.55;;;29.20;41.20;;;;;;4926410;28;46282;-62
2022/07/03 09:28:14;;;;;;;0.80;0.63;;;29.20;41.20;;;;;;4929262;28;45810;-65
2022/07/03 09:30:41;;;;;;;0.60;0.60;;;29.20;41.10;;;;;;4943464;28;45884;-64
2022/07/03 09:33:07;;;;;;;0.65;0.65;;;29.20;40.90;;;;;;4913047;28;45079;-61
2022/07/03 09:35:32;;;;;;;0.80;0.60;;;29.20;41.00;;;;;;4912532;28;46137;-61
2022/07/03 09:37:59;;;;;;;1.02;0.57;;;29.20;40.90;;;;;;4943990;28;45071;-61
2022/07/03 09:40:26;;;;;;;0.73;0.60;;;29.20;41.00;;;;;;4946178;28;44997;-68
2022/07/03 09:42:59;;;;;;;2.67;0.75;;;29.30;41.00;;;;;;4945257;28;45033;-66
2022/07/03 09:45:24;;;;;;;0.70;0.70;;;29.30;40.90;;;;;;4947900;28;45139;-62
2022/07/03 09:47:50;;;;;;;0.52;0.50;;;29.30;40.90;;;;;;4949199;28;44892;-64
2022/07/03 09:50:16;;;;;;;0.65;0.65;;;29.30;40.90;;;;;;4930173;28;44782;-62
2022/07/03 09:52:43;;;;;;;0.60;0.60;;;29.30;40.90;;;;;;4949913;28;44925;-70
2022/07/03 09:55:08;;;;;;;0.70;0.70;;;29.40;40.90;;;;;;4950086;28;46044;-63
2022/07/03 09:57:34;;;;;;;0.60;0.60;;;29.40;40.90;;;;;;4943385;28;45404;-59
2022/07/03 10:00:22;;;;;;;0.80;0.80;;;29.40;40.80;;;;;;4945642;28;45631;-62
2022/07/03 10:02:52;;;;;;;0.60;0.60;;;29.40;40.60;;;;;;4949162;28;45031;-62
2022/07/03 10:05:17;;;;;;;0.50;0.50;;;29.40;40.70;;;;;;4947148;28;46012;-63
2022/07/03 10:07:51;;;;;;;0.70;0.70;;;29.40;40.70;;;;;;4947516;28;44984;-66
2022/07/03 10:10:17;;;;;;;0.60;0.60;;;29.40;40.60;;;;;;4949637;28;45663;-62
2022/07/03 10:12:44;;;;;;;0.77;0.73;;;29.40;41.20;;;;;;4945928;28;45162;-62
2022/07/03 10:15:10;;;;;;;0.60;0.60;;;29.50;40.70;;;;;;4915113;28;46192;-63
2022/07/03 10:17:35;;;;;;;0.70;0.70;;;29.50;40.60;;;;;;4913287;28;46121;-60
2022/07/03 10:20:01;;;;;;;0.70;0.70;;;29.50;40.50;;;;;;4945680;28;45745;-62
2022/07/03 10:22:27;;;;;;;0.57;0.57;;;29.50;40.50;;;;;;4914324;28;46133;-62
2022/07/03 10:24:52;;;;;;;0.55;0.55;;;29.50;40.50;;;;;;4914851;28;44959;-65
2022/07/03 10:27:18;;;;;;;0.60;0.60;;;29.50;40.40;;;;;;4914438;28;44965;-65
2022/07/03 10:29:43;;;;;;;0.57;0.57;;;29.50;40.40;;;;;;4912921;28;45270;-64
2022/07/03 10:32:09;;;;;;;0.55;0.55;;;29.50;40.30;;;;;;4912818;28;45704;-62
2022/07/03 10:34:34;;;;;;;0.90;0.70;;;29.50;40.30;;;;;;4898311;28;46066;-62
2022/07/03 10:37:03;;;;;;;0.73;0.73;;;29.60;40.40;;;;;;4914088;28;45333;-64
2022/07/03 10:44:45;;;;;;;0.65;0.65;;;29.50;40.20;;;;;;4948074;28;45588;-64
2022/07/03 10:45:32;;;;;;;0.50;0.50;;;29.60;40.30;;;;;;4933174;28;46193;-67
2022/07/03 10:47:57;;;;;;;0.50;0.50;;;29.60;40.30;;;;;;4948318;28;45024;-62
2022/07/03 10:50:23;;;;;;;0.68;0.68;;;29.60;40.20;;;;;;4948337;28;44977;-60
2022/07/03 10:52:49;;;;;;;0.70;0.70;;;29.60;40.30;;;;;;4947893;28;44757;-61
2022/07/03 10:55:15;;;;;;;0.65;0.65;;;29.60;40.20;;;;;;4948796;28;45009;-66
2022/07/03 10:58:02;;;;;;;0.93;0.57;;;29.60;40.20;;;;;;4948026;28;44710;-62
2022/07/03 11:00:27;;;;;;;0.55;0.55;;;29.60;40.10;;;;;;4935886;28;45101;-64
2022/07/03 11:02:54;;;;;;;0.70;0.70;;;29.70;40.10;;;;;;4948220;28;45966;-62
2022/07/03 11:05:21;;;;;;;0.70;0.70;;;29.70;40.10;;;;;;4930498;28;46110;-65
2022/07/03 11:07:53;;;;;;;0.80;0.80;;;29.70;40.10;;;;;;4946591;28;45190;-67
2022/07/03 11:10:18;;;;;;;0.87;0.80;;;29.70;40.00;;;;;;4948987;28;45009;-64
2022/07/03 11:13:15;;;;;;;0.57;0.57;;;29.70;40.10;;;;;;4946250;28;44983;-59
2022/07/03 11:15:41;;;;;;;0.50;0.50;;;29.70;39.90;;;;;;4937180;28;46104;-64
2022/07/03 11:18:16;;;;;;;0.57;0.57;;;29.70;40.20;;;;;;4946825;28;44875;-66
2022/07/03 11:20:41;;;;;;;0.73;0.65;;;29.70;40.00;;;;;;4948080;28;44788;-67
2022/07/03 11:23:13;;;;;;;0.50;0.50;;;29.70;40.10;;;;;;4947223;28;45795;-62
2022/07/03 11:25:48;;;;;;;1.02;0.73;;;29.70;40.00;;;;;;4946685;28;46496;-66
2022/07/03 11:28:32;;;;;;;0.68;0.68;;;29.70;39.90;;;;;;4946238;28;46225;-63
2022/07/03 11:31:18;;;;;;;1.35;0.80;;;29.70;39.70;;;;;;4942765;28;46180;-62
2022/07/03 11:33:59;;;;;;;0.68;0.68;;;29.70;39.80;;;;;;4948019;28;45630;-61
2022/07/03 11:36:29;;;;;;;0.55;0.47;;;29.70;39.90;;;;;;4928167;28;47165;-62
2022/07/03 11:38:55;;;;;;;0.70;0.70;;;29.70;40.00;;;;;;4946273;28;44954;-63
2022/07/03 11:41:21;;;;;;;0.60;0.60;;;29.70;40.00;;;;;;4946418;28;45421;-62
2022/07/03 11:43:54;;;;;;;0.60;0.60;;;29.70;40.00;;;;;;4945340;28;45011;-65
2022/07/03 11:46:21;;;;;;;0.60;0.60;;;29.70;39.80;;;;;;4945141;28;45659;-63
2022/07/03 11:48:46;;;;;;;0.70;0.70;;;29.70;39.90;;;;;;4945355;28;45006;-63
2022/07/03 11:51:12;;;;;;;0.70;0.70;;;29.80;40.10;;;;;;4946626;28;44903;-66
2022/07/03 11:53:38;;;;;;;0.60;0.60;;;29.80;39.90;;;;;;4946727;28;45544;-61
2022/07/03 11:56:15;;;;;;;0.90;0.90;;;29.80;39.90;;;;;;4942196;28;46118;-61
2022/07/03 11:58:41;;;;;;;0.70;0.70;;;29.80;39.90;;;;;;4934335;28;45081;-66
2022/07/03 12:01:34;;;;;;;0.60;0.60;;;29.80;39.90;;;;;;4920900;28;45569;-60
2022/07/03 12:04:29;;;;;;;0.60;0.60;;;29.80;39.70;;;;;;4932182;28;45308;-63
2022/07/03 12:06:58;;;;;;;0.80;0.80;;;29.80;39.70;;;;;;4931045;28;45935;-65
2022/07/03 12:09:33;;;;;;;0.70;0.70;;;29.80;39.90;;;;;;4938186;28;45666;-65
2022/07/03 12:12:11;;;;;;;0.80;0.80;;;29.80;39.80;;;;;;4940092;28;45064;-68
2022/07/03 12:14:50;;;;;;;0.65;0.52;;;29.80;39.70;;;;;;4941640;28;44837;-67
2022/07/03 12:17:17;;;;;;;0.77;0.73;;;29.80;39.70;;;;;;4922543;28;47570;-66
2022/07/03 12:19:46;;;;;;;0.70;0.70;;;29.80;39.80;;;;;;4941137;28;44998;-66
2022/07/03 12:22:11;;;;;;;0.63;0.63;;;29.80;39.80;;;;;;4940976;28;45188;-65
2022/07/03 12:24:37;;;;;;;0.50;0.50;;;29.80;39.80;;;;;;4941693;28;44998;-63
2022/07/03 12:27:04;;;;;;;0.60;0.60;;;29.80;39.80;;;;;;4938361;28;46185;-65
2022/07/03 12:29:30;;;;;;;0.85;0.70;;;29.80;39.80;;;;;;4940381;28;45953;-65
2022/07/03 12:31:55;;;;;;;0.70;0.70;;;29.90;39.80;;;;;;4924476;28;45855;-63
2022/07/03 12:34:21;;;;;;;0.70;0.70;;;29.90;39.80;;;;;;4942056;28;45062;-68
2022/07/03 12:36:57;;;;;;;0.70;0.70;;;29.90;39.80;;;;;;4922807;28;46031;-66
2022/07/03 12:39:23;;;;;;;0.70;0.70;;;29.90;39.60;;;;;;4941546;28;45261;-63
2022/07/03 12:41:48;;;;;;;0.60;0.60;;;29.90;39.70;;;;;;4940212;28;45105;-65
2022/07/03 12:44:18;;;;;;;0.60;0.60;;;29.90;39.70;;;;;;4940084;28;45231;-65
2022/07/03 12:46:43;;;;;;;0.55;0.55;;;29.90;39.70;;;;;;4922371;28;46051;-67
2022/07/03 12:49:13;;;;;;;0.80;0.60;;;29.90;39.70;;;;;;4939714;28;45071;-65
2022/07/03 12:51:42;;;;;;;0.70;0.70;;;29.90;39.70;;;;;;4922163;28;46045;-61
2022/07/03 12:54:29;;;;;;;0.70;0.70;;;29.90;39.70;;;;;;4940396;28;45358;-64
2022/07/03 13:00:11;;;;;;;0.60;0.57;;;29.90;39.50;;;;;;4939205;28;45182;-64
2022/07/03 13:02:40;;;;;;;0.68;0.68;;;29.90;39.50;;;;;;4940428;28;45451;-66
2022/07/03 13:05:22;;;;;;;0.75;0.75;;;29.90;39.70;;;;;;4941155;28;45295;-65
2022/07/03 13:07:49;;;;;;;0.68;0.65;;;30.00;39.50;;;;;;4939694;28;46038;-67
2022/07/03 13:10:15;;;;;;;0.60;0.60;;;29.90;39.60;;;;;;4941653;28;45848;-65
2022/07/03 13:12:53;;;;;;;0.80;0.60;;;30.00;39.70;;;;;;4940835;28;45034;-63
2022/07/03 13:15:19;;;;;;;0.60;0.60;;;30.00;39.70;;;;;;4941641;28;45073;-64
2022/07/03 13:17:54;;;;;;;0.60;0.60;;;30.00;39.70;;;;;;4940277;28;46136;-67
2022/07/03 13:20:27;;;;;;;0.60;0.60;;;30.00;39.60;;;;;;4943131;28;45799;-64
2022/07/03 13:22:53;;;;;;;;;;;30.00;39.60;;;;;;4943074;28;44939;-62
2022/07/03 13:25:19;;;;;;;0.60;0.60;;;29.90;39.40;;;;;;4925899;28;45559;-62
2022/07/03 13:27:45;;;;;;;0.60;0.60;;;29.90;39.70;;;;;;4941765;28;45406;-67
2022/07/03 13:30:14;;;;;;;0.60;0.60;;;29.90;39.60;;;;;;4941385;28;45250;-68
2022/07/03 13:32:40;;;;;;;0.88;0.60;;;29.90;39.50;;;;;;4943877;28;45546;-65
2022/07/03 13:35:06;;;;;;;0.50;0.50;;;30.00;39.60;;;;;;4943862;28;45246;-65
2022/07/03 13:37:32;;;;;;;0.50;0.50;;;30.00;39.60;;;;;;4944796;28;45862;-67
2022/07/03 13:39:57;;;;;;;0.70;0.60;;;30.00;39.60;;;;;;4925701;28;45069;-66
2022/07/03 13:42:23;;;;;;;0.77;0.68;;;30.00;39.60;;;;;;4943871;28;45822;-64
2022/07/03 13:44:50;;;;;;;0.80;0.80;;;30.00;39.70;;;;;;4944494;28;45012;-68
2022/07/03 13:47:16;;;;;;;0.68;0.68;;;30.00;39.60;;;;;;4938218;28;46202;-63
2022/07/03 13:49:41;;;;;;;0.80;0.80;;;30.00;39.50;;;;;;4943477;28;45212;-63
2022/07/03 13:52:07;;;;;;;0.52;0.52;;;30.00;39.50;;;;;;4943344;28;45713;-62
2022/07/03 13:54:32;;;;;;;0.70;0.70;;;30.00;39.50;;;;;;4933053;28;45294;-66
2022/07/03 13:56:58;;;;;;;0.70;0.70;;;30.00;39.50;;;;;;4939221;28;45824;-65
2022/07/03 13:59:24;;;;;;;2.80;0.70;;;30.00;39.40;;;;;;4943143;28;45176;-66
2022/07/03 14:01:49;;;;;;;0.60;0.60;;;30.00;39.30;;;;;;4942058;28;45672;-64
2022/07/03 14:04:15;;;;;;;1.10;0.70;;;30.00;39.30;;;;;;4942352;28;45444;-65
2022/07/03 14:06:40;;;;;;;0.70;0.70;;;30.10;39.30;;;;;;4943490;28;45744;-65
2022/07/03 14:09:06;;;;;;;0.55;0.55;;;30.10;39.20;;;;;;4941824;28;45895;-67
2022/07/03 14:11:31;;;;;;;0.80;0.70;;;30.10;39.20;;;;;;4944217;28;45320;-67
2022/07/03 14:13:57;;;;;;;0.60;0.60;;;30.10;39.10;;;;;;4928171;28;44886;-68
2022/07/03 14:16:23;;;;;;;0.60;0.60;;;30.10;39.10;;;;;;4926526;28;45416;-64
2022/07/03 14:18:48;;;;;;;0.73;0.73;;;30.10;39.10;;;;;;4926705;28;45324;-65
2022/07/03 14:21:14;;;;;;;0.73;0.70;;;30.10;39.10;;;;;;4927593;28;45669;-63
2022/07/03 14:23:39;;;;;;;0.65;0.63;;;30.10;39.10;;;;;;4924393;28;45380;-66
2022/07/03 14:26:05;;;;;;;0.50;0.50;;;30.10;39.10;;;;;;4925463;28;46419;-68
2022/07/03 14:33:53;;;;;;;0.70;0.70;;;30.20;39.00;;;;;;4927274;28;45789;-64
2022/07/03 14:36:18;;;;;;;0.65;0.60;;;30.20;38.90;;;;;;4927007;28;46318;-67
2022/07/03 14:38:44;;;;;;;0.60;0.60;;;30.20;38.90;;;;;;4927676;28;45072;-64
2022/07/03 14:41:09;;;;;;;0.60;0.60;;;30.20;38.90;;;;;;4927436;28;45333;-65
2022/07/03 14:43:35;;;;;;;0.60;0.57;;;30.20;38.90;;;;;;4922294;28;45694;-64
2022/07/03 14:46:01;;;;;;;0.60;0.60;;;30.20;38.90;;;;;;4925298;28;45823;-65
2022/07/03 14:48:26;;;;;;;0.60;0.60;;;30.20;38.90;;;;;;4927180;28;45495;-65
2022/07/03 14:50:52;;;;;;;0.50;0.50;;;30.20;38.90;;;;;;4906978;28;45508;-66
2022/07/03 14:53:18;;;;;;;0.75;0.75;;;30.20;38.90;;;;;;4925175;28;45772;-64
2022/07/03 14:55:44;;;;;;;0.68;0.68;;;30.20;38.80;;;;;;4923061;28;46331;-62
2022/07/03 14:58:21;;;;;;;0.50;0.50;;;30.20;38.80;;;;;;4927916;28;46008;-64
2022/07/03 15:00:51;;;;;;;0.70;0.70;;;30.20;38.70;;;;;;4924900;28;45079;-62
2022/07/03 15:03:18;;;;;;;0.90;0.70;;;30.30;38.80;;;;;;4926165;28;45857;-65
2022/07/03 15:05:43;;;;;;;0.80;0.80;;;30.20;38.80;;;;;;4925498;28;46058;-67
2022/07/03 15:08:19;;;;;;;0.70;0.70;;;30.30;38.90;;;;;;4908182;28;45884;-64
2022/07/03 15:10:45;;;;;;;0.45;0.45;;;30.30;38.80;;;;;;4910605;28;45500;-65
2022/07/03 15:13:11;;;;;;;0.90;0.60;;;30.30;38.80;;;;;;4925389;28;46275;-67
2022/07/03 15:15:38;;;;;;;0.60;0.60;;;30.20;39.40;;;;;;4892688;28;46921;-61
2022/07/03 15:18:04;;;;;;;0.80;0.70;;;30.30;38.80;;;;;;4924965;28;45562;-62
2022/07/03 15:20:34;;;;;;;0.80;0.80;;;30.20;38.80;;;;;;4926779;28;44682;-64
2022/07/03 15:23:01;;;;;;;0.50;0.50;;;30.30;39.40;;;;;;4925754;28;45830;-64
2022/07/03 15:25:27;;;;;;;0.50;0.50;;;30.30;38.80;;;;;;4923951;28;46217;-71
2022/07/03 15:27:55;;;;;;;0.60;0.60;;;30.30;38.90;;;;;;4925025;28;45886;-62
2022/07/03 15:30:21;;;;;;;0.60;0.60;;;30.30;38.80;;;;;;4925749;28;46787;-68
2022/07/03 15:32:47;;;;;;;0.50;0.50;;;30.30;38.70;;;;;;4925586;28;45324;-65
2022/07/03 15:35:17;;;;;;;0.50;0.50;;;30.30;38.70;;;;;;4923934;28;45447;-62
2022/07/03 15:37:54;;;;;;;0.52;0.52;;;30.30;38.70;;;;;;4923865;28;46416;-62
2022/07/03 15:40:42;;;;;;;0.50;0.40;;;30.30;38.70;;;;;;4927725;28;46256;-64
2022/07/03 15:43:32;;;;;;;0.43;0.43;;;30.30;38.60;;;;;;4925425;28;45747;-65
2022/07/03 15:46:13;;;;;;;0.60;0.60;;;30.30;39.10;;;;;;4924151;28;47581;-64
2022/07/03 15:48:41;;;;;;;0.70;0.70;;;30.30;38.70;;;;;;4926499;28;46394;-63
2022/07/03 15:51:21;;;;;;;0.50;0.50;;;30.40;38.70;;;;;;4927014;28;45996;-64
2022/07/03 15:53:49;;;;;;;0.60;0.45;;;30.30;38.60;;;;;;4926907;28;46322;-64
2022/07/03 15:56:16;;;;;;;0.60;0.60;;;30.40;38.60;;;;;;4922878;28;45686;-65
2022/07/03 15:58:47;;;;;;;0.52;0.52;;;30.40;38.60;;;;;;4924857;28;45690;-63
2022/07/03 16:04:10;;;;;;;0.43;0.43;;;30.40;38.60;;;;;;5047205;28;44825;-68
2022/07/03 16:06:41;;;;;;;0.60;0.60;;;30.40;38.50;;;;;;5024093;28;45693;-66
2022/07/03 16:09:06;;;;;;;0.68;0.68;;;30.40;38.50;;;;;;5026557;28;45165;-66
2022/07/03 16:11:36;;;;;;;0.55;0.55;;;30.40;38.60;;;;;;5025436;28;45222;-64
2022/07/03 16:14:04;;;;;;;0.50;0.50;;;30.40;38.50;;;;;;5024814;28;47025;-65